Time;durP1;ratioP1;P1;durP2;ratioP2;P2;SDS_P1;SDS_P2;PMS_P1;PMS_P2;Temp;Humidity;BMP_temperature;BMP_pressure;BME280_temperature;BME280_humidity;BME280_pressure;Samples;Min_cycle;Max_cycle;Signal;HPM_P1;HPM_P2
2021/05/16 00:00:25;;;;;;;2.00;1.00;;;9.10;99.90;;;;;;5073333;28;20540;-53
2021/05/16 00:02:51;;;;;;;3.20;1.38;;;9.10;99.90;;;;;;5070590;28;20028;-57
2021/05/16 00:05:18;;;;;;;0.80;0.80;;;9.10;99.90;;;;;;5073374;28;20115;-57
2021/05/16 00:07:44;;;;;;;1.90;1.20;;;9.00;99.90;;;;;;5073097;28;20017;-55
2021/05/16 00:10:11;;;;;;;1.30;1.20;;;9.00;99.90;;;;;;5072931;28;20506;-55
2021/05/16 00:12:37;;;;;;;2.35;0.98;;;8.90;99.90;;;;;;5072979;28;20543;-56
2021/05/16 00:15:06;;;;;;;1.30;1.15;;;8.90;99.90;;;;;;5073138;28;20131;-57
2021/05/16 00:17:32;;;;;;;3.40;1.13;;;8.80;99.90;;;;;;5071787;28;20447;-57
2021/05/16 00:19:58;;;;;;;2.45;1.02;;;8.80;99.90;;;;;;5073116;28;20033;-56
2021/05/16 00:22:23;;;;;;;2.38;1.50;;;8.80;99.90;;;;;;5072636;28;20028;-57
2021/05/16 00:24:49;;;;;;;1.30;1.00;;;8.90;99.90;;;;;;5071200;28;20531;-58
2021/05/16 00:27:14;;;;;;;5.03;1.73;;;8.90;99.90;;;;;;5074351;28;20189;-57
2021/05/16 00:29:40;;;;;;;2.67;1.63;;;9.00;99.90;;;;;;5074720;28;20103;-56
2021/05/16 00:32:05;;;;;;;2.90;1.50;;;9.10;99.90;;;;;;5073201;28;20038;-56
2021/05/16 00:34:31;;;;;;;2.47;2.15;;;9.10;99.90;;;;;;5074459;28;20025;-53
2021/05/16 00:36:57;;;;;;;2.92;1.48;;;9.10;99.90;;;;;;5074557;28;20021;-58
2021/05/16 00:39:23;;;;;;;4.18;1.60;;;9.10;99.90;;;;;;5074265;28;20390;-55
2021/05/16 00:41:48;;;;;;;3.38;2.00;;;9.10;99.90;;;;;;5074310;28;20025;-58
2021/05/16 00:44:18;;;;;;;3.78;1.15;;;9.20;99.90;;;;;;5073954;28;20455;-55
2021/05/16 00:46:44;;;;;;;2.53;1.60;;;9.20;99.90;;;;;;5073137;28;20323;-57
2021/05/16 00:49:11;;;;;;;2.13;1.50;;;9.20;99.90;;;;;;5074062;28;20051;-57
2021/05/16 00:51:37;;;;;;;2.47;1.70;;;9.20;99.90;;;;;;5082230;28;20012;-57
2021/05/16 00:54:05;;;;;;;1.77;1.58;;;9.30;99.90;;;;;;5073847;28;20040;-57
2021/05/16 00:56:31;;;;;;;2.80;1.80;;;9.30;99.90;;;;;;5073950;28;20024;-57
2021/05/16 00:58:59;;;;;;;2.78;1.55;;;9.30;99.90;;;;;;5073928;28;20021;-57
2021/05/16 01:01:25;;;;;;;1.92;1.83;;;9.30;99.90;;;;;;5072021;28;20032;-57
2021/05/16 01:03:51;;;;;;;2.20;1.58;;;9.30;99.90;;;;;;5072502;28;20024;-57
2021/05/16 01:06:16;;;;;;;1.98;1.50;;;9.30;99.90;;;;;;5073997;28;20348;-57
2021/05/16 01:08:48;;;;;;;2.85;1.40;;;9.30;99.90;;;;;;5073641;28;20095;-54
2021/05/16 01:11:16;;;;;;;2.30;2.08;;;9.30;99.90;;;;;;5073654;28;20115;-57
2021/05/16 01:13:45;;;;;;;2.08;1.80;;;9.30;99.90;;;;;;5073693;28;20025;-58
2021/05/16 01:16:10;;;;;;;2.30;1.58;;;9.30;99.90;;;;;;5073690;28;20013;-56
2021/05/16 01:18:36;;;;;;;3.10;1.70;;;9.30;99.90;;;;;;5072259;28;20074;-56
2021/05/16 01:21:02;;;;;;;1.60;1.30;;;9.30;99.90;;;;;;5072456;28;20020;-57
2021/05/16 01:23:33;;;;;;;2.38;1.70;;;9.30;99.90;;;;;;5073220;28;20471;-56
2021/05/16 01:26:00;;;;;;;2.22;1.55;;;9.30;99.90;;;;;;5073684;28;20131;-58
2021/05/16 01:28:26;;;;;;;3.40;1.67;;;9.30;99.90;;;;;;5073186;28;20020;-58
2021/05/16 01:30:52;;;;;;;7.82;2.15;;;9.30;99.90;;;;;;5073517;28;20040;-58
2021/05/16 01:33:20;;;;;;;4.72;1.75;;;9.30;99.90;;;;;;5072367;28;20033;-58
2021/05/16 01:35:46;;;;;;;5.20;1.80;;;9.30;99.90;;;;;;5073503;28;20124;-57
2021/05/16 01:38:13;;;;;;;1.50;1.40;;;9.30;99.90;;;;;;5073113;28;20024;-57
2021/05/16 01:40:41;;;;;;;1.65;1.55;;;9.30;99.90;;;;;;5073381;28;20044;-57
2021/05/16 01:43:11;;;;;;;4.05;1.92;;;9.30;99.90;;;;;;5073016;28;20029;-57
2021/05/16 01:45:36;;;;;;;2.38;1.83;;;9.30;99.90;;;;;;5073196;28;20016;-55
2021/05/16 01:48:02;;;;;;;4.68;2.13;;;9.30;99.90;;;;;;5071723;28;20093;-57
2021/05/16 01:50:30;;;;;;;2.55;2.20;;;9.30;99.90;;;;;;5072740;28;20024;-58
2021/05/16 01:52:56;;;;;;;2.03;1.60;;;9.30;99.90;;;;;;5065163;28;20021;-58
2021/05/16 01:55:22;;;;;;;2.47;1.90;;;9.30;99.90;;;;;;5072886;28;20086;-54
2021/05/16 01:57:48;;;;;;;3.10;1.90;;;9.30;99.90;;;;;;5072731;28;20134;-57
2021/05/16 02:00:30;;;;;;;2.08;1.50;;;9.40;99.90;;;;;;5072897;28;20028;-58
2021/05/16 02:02:57;;;;;;;1.77;1.30;;;9.30;99.90;;;;;;5071404;28;20037;-57
2021/05/16 02:05:23;;;;;;;2.55;2.10;;;9.30;99.90;;;;;;5072743;28;20028;-57
2021/05/16 02:07:49;;;;;;;2.53;2.08;;;9.30;99.90;;;;;;5072794;28;20036;-57
2021/05/16 02:10:17;;;;;;;2.38;1.60;;;9.30;99.90;;;;;;5072883;28;20033;-57
2021/05/16 02:12:42;;;;;;;3.20;1.63;;;9.30;99.90;;;;;;5072831;28;20356;-57
2021/05/16 02:15:11;;;;;;;4.38;2.67;;;9.20;99.90;;;;;;5072632;28;20062;-58
2021/05/16 02:17:39;;;;;;;2.85;1.70;;;9.20;99.90;;;;;;5071410;28;20100;-56
2021/05/16 02:20:07;;;;;;;3.85;1.83;;;9.20;99.90;;;;;;5072776;28;20024;-56
2021/05/16 02:22:32;;;;;;;2.25;1.83;;;9.20;99.90;;;;;;5072602;28;20078;-57
2021/05/16 02:24:58;;;;;;;3.05;1.73;;;9.10;99.90;;;;;;5072561;28;20033;-58
2021/05/16 02:27:23;;;;;;;1.85;1.42;;;9.10;99.90;;;;;;5072725;28;20077;-55
2021/05/16 02:29:49;;;;;;;2.25;1.90;;;9.10;99.90;;;;;;5072252;28;20417;-56
2021/05/16 02:32:15;;;;;;;1.90;1.48;;;9.10;99.90;;;;;;5071406;28;20017;-56
2021/05/16 02:34:40;;;;;;;2.83;1.60;;;9.00;99.90;;;;;;5072374;28;20024;-53
2021/05/16 02:37:06;;;;;;;2.63;1.67;;;8.90;99.90;;;;;;5072492;28;20020;-57
2021/05/16 02:39:31;;;;;;;2.13;1.92;;;8.80;99.90;;;;;;5072352;28;20042;-57
2021/05/16 02:41:57;;;;;;;1.63;1.52;;;8.80;99.90;;;;;;5072522;28;20032;-57
2021/05/16 02:44:22;;;;;;;1.85;1.40;;;8.60;99.90;;;;;;5072213;28;20033;-58
2021/05/16 02:46:48;;;;;;;3.05;1.70;;;8.50;99.90;;;;;;5071425;28;20032;-58
2021/05/16 02:49:13;;;;;;;2.38;1.60;;;8.40;99.90;;;;;;5072412;28;20031;-57
2021/05/16 02:51:39;;;;;;;3.58;1.33;;;8.30;99.90;;;;;;5080281;28;20020;-56
2021/05/16 02:54:06;;;;;;;2.00;1.42;;;8.20;99.90;;;;;;5071854;28;20051;-57
2021/05/16 02:56:31;;;;;;;1.75;1.50;;;8.20;99.90;;;;;;5072364;28;20052;-58
2021/05/16 02:58:58;;;;;;;3.53;1.52;;;8.10;99.90;;;;;;5072117;28;20067;-58
2021/05/16 03:01:24;;;;;;;1.70;1.60;;;8.00;99.90;;;;;;5070893;28;20107;-56
2021/05/16 03:03:49;;;;;;;2.38;1.40;;;7.90;99.90;;;;;;5072107;28;20577;-57
2021/05/16 03:06:15;;;;;;;4.60;1.90;;;7.90;99.90;;;;;;5072329;28;20025;-56
2021/05/16 03:08:40;;;;;;;3.58;1.90;;;7.80;99.90;;;;;;5072023;28;20040;-56
2021/05/16 03:11:06;;;;;;;2.80;1.63;;;7.80;99.90;;;;;;5072166;28;20376;-58
2021/05/16 03:13:32;;;;;;;1.70;1.58;;;7.70;99.90;;;;;;5071818;28;20190;-56
2021/05/16 03:15:57;;;;;;;1.50;1.40;;;7.70;99.90;;;;;;5072068;28;20024;-56
2021/05/16 03:18:23;;;;;;;3.08;1.30;;;7.60;99.90;;;;;;5070649;28;20494;-56
2021/05/16 03:20:49;;;;;;;2.38;1.80;;;7.60;99.90;;;;;;5071887;28;20028;-58
2021/05/16 03:23:14;;;;;;;3.15;1.35;;;7.50;99.90;;;;;;5071987;28;20025;-56
2021/05/16 03:25:40;;;;;;;2.25;2.05;;;7.50;99.90;;;;;;5075441;28;20029;-58
2021/05/16 03:28:06;;;;;;;2.38;1.58;;;7.50;99.90;;;;;;5075683;28;20020;-58
2021/05/16 03:30:32;;;;;;;3.05;1.58;;;7.40;99.90;;;;;;5075152;28;20529;-57
2021/05/16 03:32:57;;;;;;;5.57;1.83;;;7.40;99.90;;;;;;5073098;28;20456;-57
2021/05/16 03:35:23;;;;;;;3.28;1.80;;;7.30;99.90;;;;;;5075467;28;20024;-55
2021/05/16 03:37:49;;;;;;;5.18;2.08;;;7.30;99.90;;;;;;5075527;28;20096;-58
2021/05/16 03:40:15;;;;;;;2.00;1.60;;;7.30;99.90;;;;;;5075251;28;20067;-57
2021/05/16 03:42:40;;;;;;;3.38;1.67;;;7.40;99.90;;;;;;5075417;28;20438;-58
2021/05/16 03:45:08;;;;;;;4.22;1.83;;;7.40;99.90;;;;;;5073812;28;20025;-57
2021/05/16 03:47:33;;;;;;;4.75;1.85;;;7.40;99.90;;;;;;5074024;28;20020;-58
2021/05/16 03:50:00;;;;;;;3.05;1.90;;;7.50;99.90;;;;;;5075131;28;20414;-55
2021/05/16 03:52:26;;;;;;;1.60;1.50;;;7.50;99.90;;;;;;5083253;28;20050;-57
2021/05/16 03:54:52;;;;;;;2.25;1.95;;;7.50;99.90;;;;;;5075007;28;20048;-56
2021/05/16 03:57:18;;;;;;;4.53;2.42;;;7.90;99.90;;;;;;5075264;28;20024;-57
2021/05/16 03:59:44;;;;;;;2.20;2.00;;;8.90;99.90;;;;;;5073233;28;20020;-57
2021/05/16 04:02:10;;;;;;;2.67;2.10;;;10.10;99.90;;;;;;5073818;28;20483;-58
2021/05/16 04:04:36;;;;;;;1.15;1.05;;;11.30;99.90;;;;;;5074925;28;20046;-56
2021/05/16 04:07:02;;;;;;;1.52;1.30;;;12.70;99.90;;;;;;5075233;28;20499;-57
2021/05/16 04:09:27;;;;;;;3.00;1.50;;;14.00;99.90;;;;;;5074891;28;20033;-57
2021/05/16 04:11:53;;;;;;;3.85;1.45;;;15.30;99.90;;;;;;5074909;28;20028;-58
2021/05/16 04:14:21;;;;;;;1.73;1.20;;;16.00;99.90;;;;;;5074769;28;20031;-55
2021/05/16 04:16:46;;;;;;;1.17;0.98;;;16.90;99.90;;;;;;5073405;28;20031;-57
2021/05/16 04:19:12;;;;;;;1.10;0.85;;;18.00;99.00;;;;;;5073472;28;20052;-58
2021/05/16 04:21:37;;;;;;;1.38;1.27;;;18.90;95.20;;;;;;5074775;28;20539;-56
2021/05/16 04:24:03;;;;;;;1.63;0.93;;;18.50;93.70;;;;;;5074559;28;20028;-58
2021/05/16 04:26:29;;;;;;;1.20;1.02;;;18.20;93.90;;;;;;5072329;28;20041;-56
2021/05/16 04:28:54;;;;;;;1.35;1.10;;;18.10;93.40;;;;;;5065210;28;20090;-55
2021/05/16 04:31:20;;;;;;;1.40;1.13;;;18.90;93.20;;;;;;5071017;28;20064;-58
2021/05/16 04:33:45;;;;;;;2.28;0.90;;;19.70;90.90;;;;;;5072595;28;20025;-56
2021/05/16 04:36:11;;;;;;;0.95;0.93;;;20.60;88.60;;;;;;5060308;28;20029;-58
2021/05/16 04:38:36;;;;;;;1.25;0.90;;;21.30;84.20;;;;;;5070820;28;20021;-56
2021/05/16 04:41:02;;;;;;;1.25;0.90;;;22.00;81.80;;;;;;5072869;28;20031;-58
2021/05/16 04:43:27;;;;;;;1.27;0.90;;;22.70;79.60;;;;;;5072512;28;20025;-58
2021/05/16 04:45:53;;;;;;;2.08;1.25;;;23.30;77.40;;;;;;5072094;28;20088;-58
2021/05/16 04:48:18;;;;;;;1.48;1.30;;;23.70;73.10;;;;;;5071329;28;20040;-58
2021/05/16 04:50:44;;;;;;;1.00;0.90;;;24.00;70.60;;;;;;5074215;28;20025;-58
2021/05/16 04:53:09;;;;;;;1.90;1.02;;;24.30;69.50;;;;;;5074327;28;20027;-56
2021/05/16 04:55:35;;;;;;;1.30;1.00;;;24.80;69.10;;;;;;5072348;28;20020;-57
2021/05/16 04:58:00;;;;;;;1.17;1.08;;;25.00;67.40;;;;;;5072416;28;20051;-57
2021/05/16 05:00:26;;;;;;;2.15;0.80;;;25.40;66.20;;;;;;5070989;28;20108;-58
2021/05/16 05:02:52;;;;;;;1.58;0.75;;;25.60;64.80;;;;;;5068069;28;20039;-58
2021/05/16 05:05:18;;;;;;;1.23;1.13;;;26.00;64.50;;;;;;5072167;28;20020;-58
2021/05/16 05:07:43;;;;;;;1.42;0.82;;;26.40;63.40;;;;;;5072206;28;20378;-57
2021/05/16 05:10:10;;;;;;;1.20;1.05;;;26.60;60.70;;;;;;5072067;28;20533;-58
2021/05/16 05:12:35;;;;;;;1.33;0.90;;;26.40;58.50;;;;;;5071846;28;20491;-59
2021/05/16 05:15:01;;;;;;;1.00;0.80;;;26.70;59.00;;;;;;5071989;28;20043;-58
2021/05/16 05:17:26;;;;;;;2.13;1.15;;;27.00;58.30;;;;;;5070817;28;20105;-57
2021/05/16 05:19:52;;;;;;;1.67;1.30;;;27.20;57.10;;;;;;5071776;28;20021;-59
2021/05/16 05:22:18;;;;;;;1.35;1.10;;;27.30;55.20;;;;;;5071842;28;20063;-58
2021/05/16 05:24:43;;;;;;;1.05;0.93;;;26.50;56.20;;;;;;5071664;28;20480;-58
2021/05/16 05:27:09;;;;;;;1.17;1.08;;;26.20;56.30;;;;;;5071743;28;20460;-58
2021/05/16 05:29:34;;;;;;;0.70;0.70;;;26.50;56.00;;;;;;5071154;28;20491;-58
2021/05/16 05:32:00;;;;;;;2.50;0.85;;;26.30;55.10;;;;;;5070017;28;20032;-59
2021/05/16 05:34:26;;;;;;;0.70;0.70;;;25.10;55.90;;;;;;5071620;28;20365;-58
2021/05/16 05:36:52;;;;;;;1.00;0.90;;;23.90;56.90;;;;;;5071240;28;20451;-58
2021/05/16 05:39:19;;;;;;;0.70;0.70;;;23.30;58.70;;;;;;5071671;28;20027;-58
2021/05/16 05:41:45;;;;;;;1.52;0.90;;;22.90;59.80;;;;;;5071173;28;20029;-57
2021/05/16 05:44:14;;;;;;;0.80;0.65;;;23.00;59.90;;;;;;5071385;28;20094;-57
2021/05/16 05:46:39;;;;;;;2.13;0.80;;;23.40;59.20;;;;;;5069674;28;20044;-57
2021/05/16 05:49:05;;;;;;;2.88;1.13;;;24.00;57.70;;;;;;5071150;28;20029;-58
2021/05/16 05:51:31;;;;;;;1.15;0.80;;;23.90;56.30;;;;;;5078141;28;20099;-59
2021/05/16 05:53:56;;;;;;;0.80;0.75;;;23.00;56.30;;;;;;5071110;28;20067;-58
2021/05/16 05:56:22;;;;;;;1.10;0.88;;;22.40;58.20;;;;;;5071475;28;20021;-57
2021/05/16 05:58:48;;;;;;;1.98;0.80;;;22.00;58.60;;;;;;5071132;28;20143;-58
2021/05/16 06:01:13;;;;;;;1.52;0.88;;;22.10;59.10;;;;;;5070381;28;20040;-58
2021/05/16 06:03:39;;;;;;;0.95;0.90;;;22.30;58.00;;;;;;5061949;28;20419;-58
2021/05/16 06:06:05;;;;;;;1.42;0.80;;;23.50;57.40;;;;;;5066021;28;20063;-57
2021/05/16 06:08:31;;;;;;;1.55;0.70;;;24.50;54.70;;;;;;5066868;28;20108;-58
2021/05/16 06:10:56;;;;;;;1.15;0.70;;;24.20;55.00;;;;;;5070632;28;20111;-58
2021/05/16 06:13:22;;;;;;;0.80;0.80;;;23.50;56.30;;;;;;5070801;28;20096;-58
2021/05/16 06:15:48;;;;;;;0.75;0.65;;;22.90;57.50;;;;;;5069384;28;20024;-56
2021/05/16 06:18:13;;;;;;;1.92;0.47;;;22.30;58.30;;;;;;5069827;28;20056;-56
2021/05/16 06:20:39;;;;;;;0.80;0.80;;;22.00;59.20;;;;;;5070727;28;20421;-58
2021/05/16 06:23:06;;;;;;;1.00;0.88;;;21.80;58.80;;;;;;5070943;28;20103;-57
2021/05/16 06:25:31;;;;;;;1.25;0.65;;;21.80;59.20;;;;;;5070719;28;20016;-57
2021/05/16 06:27:57;;;;;;;1.73;0.98;;;21.40;58.80;;;;;;5069423;28;20098;-59
2021/05/16 06:30:23;;;;;;;0.95;0.80;;;21.10;59.30;;;;;;5070576;28;20036;-58
2021/05/16 06:32:49;;;;;;;0.73;0.73;;;20.90;59.70;;;;;;5069808;28;20039;-58
2021/05/16 06:35:15;;;;;;;1.52;0.95;;;20.80;59.50;;;;;;5070515;28;20184;-58
2021/05/16 06:37:40;;;;;;;1.85;0.70;;;20.70;59.50;;;;;;5070874;28;20050;-58
2021/05/16 06:40:06;;;;;;;1.13;1.02;;;20.60;59.60;;;;;;5070512;28;20028;-58
2021/05/16 06:42:32;;;;;;;1.33;0.80;;;20.60;59.80;;;;;;5070588;28;20028;-58
2021/05/16 06:44:57;;;;;;;1.80;0.93;;;20.60;59.90;;;;;;5068634;28;20028;-58
2021/05/16 06:47:23;;;;;;;1.35;0.80;;;20.40;59.60;;;;;;5069486;28;20028;-58
2021/05/16 06:49:53;;;;;;;0.70;0.50;;;20.60;59.90;;;;;;5072310;28;20117;-58
2021/05/16 06:52:20;;;;;;;0.70;0.70;;;20.80;59.60;;;;;;5087569;28;20020;-58
2021/05/16 06:54:46;;;;;;;2.25;0.68;;;20.90;59.50;;;;;;5092368;28;20055;-60
2021/05/16 06:57:11;;;;;;;1.15;0.70;;;21.00;59.30;;;;;;5092426;28;20016;-58
2021/05/16 06:59:36;;;;;;;0.88;0.80;;;21.10;59.10;;;;;;5094662;28;20031;-57
2021/05/16 07:02:02;;;;;;;2.22;0.88;;;21.20;58.80;;;;;;5095457;28;20502;-59
2021/05/16 07:04:28;;;;;;;0.70;0.57;;;21.20;58.90;;;;;;5096614;28;20028;-58
2021/05/16 07:06:54;;;;;;;0.70;0.70;;;22.30;58.00;;;;;;5096482;28;20444;-58
2021/05/16 07:09:19;;;;;;;1.02;0.70;;;23.20;56.70;;;;;;5085037;28;20541;-58
2021/05/16 07:11:44;;;;;;;1.10;0.63;;;23.70;55.90;;;;;;5075266;28;20071;-58
2021/05/16 07:14:10;;;;;;;1.17;0.65;;;23.50;55.40;;;;;;5075939;28;20052;-58
2021/05/16 07:16:35;;;;;;;0.95;0.57;;;23.10;56.50;;;;;;5073679;28;20029;-57
2021/05/16 07:19:02;;;;;;;1.15;0.50;;;22.90;56.30;;;;;;5075622;28;20028;-58
2021/05/16 07:21:27;;;;;;;0.60;0.45;;;22.80;56.50;;;;;;5075872;28;20487;-58
2021/05/16 07:23:53;;;;;;;1.33;1.00;;;22.60;56.80;;;;;;5075632;28;20071;-59
2021/05/16 07:26:19;;;;;;;1.20;0.80;;;22.40;56.30;;;;;;5075608;28;20036;-58
2021/05/16 07:28:45;;;;;;;1.20;0.70;;;22.10;57.00;;;;;;5074761;28;20032;-59
2021/05/16 07:31:12;;;;;;;0.73;0.73;;;23.60;55.90;;;;;;5055061;28;20028;-58
2021/05/16 07:33:38;;;;;;;0.77;0.65;;;25.80;53.20;;;;;;5053939;28;20016;-58
2021/05/16 07:36:04;;;;;;;1.75;0.88;;;27.50;51.10;;;;;;5055297;28;20060;-56
2021/05/16 07:38:29;;;;;;;1.42;0.85;;;27.10;49.30;;;;;;5055705;28;20499;-57
2021/05/16 07:40:55;;;;;;;2.20;0.77;;;25.90;51.40;;;;;;5055252;28;20064;-59
2021/05/16 07:43:20;;;;;;;1.25;0.65;;;25.20;52.10;;;;;;5064855;28;20039;-58
2021/05/16 07:45:46;;;;;;;1.15;0.68;;;24.70;52.80;;;;;;5075131;28;20059;-59
2021/05/16 07:48:11;;;;;;;0.63;0.63;;;24.80;53.20;;;;;;5074183;28;20475;-59
2021/05/16 07:50:37;;;;;;;0.65;0.63;;;24.80;53.00;;;;;;5076216;28;20039;-59
2021/05/16 07:53:04;;;;;;;0.65;0.65;;;24.60;53.10;;;;;;5095382;28;20028;-59
2021/05/16 07:55:29;;;;;;;0.45;0.43;;;24.20;53.70;;;;;;5071429;28;20049;-59
2021/05/16 07:57:55;;;;;;;0.65;0.60;;;23.80;54.20;;;;;;5075081;28;20024;-58
2021/05/16 08:00:20;;;;;;;0.70;0.60;;;23.40;54.60;;;;;;5075026;28;20040;-58
2021/05/16 08:02:46;;;;;;;0.40;0.40;;;23.00;55.00;;;;;;5074037;28;20032;-59
2021/05/16 08:05:13;;;;;;;0.73;0.70;;;22.60;55.30;;;;;;5074823;28;20483;-57
2021/05/16 08:07:39;;;;;;;0.65;0.60;;;22.40;56.10;;;;;;5074691;28;20039;-58
2021/05/16 08:10:06;;;;;;;0.43;0.40;;;22.50;55.50;;;;;;5074246;28;20025;-58
2021/05/16 08:12:32;;;;;;;2.67;1.30;;;23.20;54.90;;;;;;5074773;28;20051;-58
2021/05/16 08:14:58;;;;;;;2.45;1.60;;;24.90;53.00;;;;;;5074750;28;20035;-47
2021/05/16 08:17:23;;;;;;;1.25;0.90;;;26.50;50.80;;;;;;5073958;28;20024;-45
2021/05/16 08:19:49;;;;;;;1.45;0.70;;;27.00;50.30;;;;;;5074870;28;20028;-47
2021/05/16 08:22:14;;;;;;;0.60;0.60;;;26.80;50.00;;;;;;5074600;28;20360;-45
2021/05/16 08:24:40;;;;;;;0.50;0.50;;;26.30;50.50;;;;;;5074763;28;20032;-43
2021/05/16 08:27:07;;;;;;;0.80;0.40;;;26.00;50.60;;;;;;5074547;28;20527;-44
2021/05/16 08:29:35;;;;;;;0.60;0.40;;;25.90;50.60;;;;;;5077510;28;20027;-44
2021/05/16 08:32:05;;;;;;;1.13;0.60;;;25.70;50.50;;;;;;5093668;28;20383;-46
2021/05/16 08:34:31;;;;;;;1.85;0.65;;;26.40;50.30;;;;;;5068146;28;20460;-45
2021/05/16 08:36:57;;;;;;;1.17;0.57;;;27.10;49.50;;;;;;5074072;28;20032;-44
2021/05/16 08:39:23;;;;;;;1.08;0.85;;;27.80;47.80;;;;;;5074248;28;20017;-46
2021/05/16 08:41:48;;;;;;;0.30;0.30;;;27.10;46.80;;;;;;5074319;28;20107;-50
2021/05/16 08:44:14;;;;;;;1.67;0.60;;;25.70;48.10;;;;;;5074260;28;20037;-44
2021/05/16 08:46:41;;;;;;;2.90;0.70;;;24.80;49.80;;;;;;5073285;28;20025;-48
2021/05/16 08:49:06;;;;;;;0.40;0.40;;;24.00;50.70;;;;;;5074129;28;20024;-44
2021/05/16 08:51:32;;;;;;;0.80;0.43;;;23.30;52.20;;;;;;5082846;28;20047;-46
2021/05/16 08:53:57;;;;;;;1.05;0.50;;;22.90;53.00;;;;;;5093934;28;20048;-45
2021/05/16 08:56:23;;;;;;;1.48;0.60;;;23.30;53.00;;;;;;5094296;28;20356;-47
2021/05/16 08:58:48;;;;;;;1.23;0.70;;;25.10;51.30;;;;;;5094508;28;20382;-46
2021/05/16 09:01:19;;;;;;;2.55;0.60;;;26.60;49.80;;;;;;5093212;28;20539;-47
2021/05/16 09:03:45;;;;;;;1.25;0.50;;;27.10;48.30;;;;;;5094302;28;20103;-46
2021/05/16 09:06:10;;;;;;;0.85;0.50;;;27.80;48.20;;;;;;5093976;28;20047;-46
2021/05/16 09:08:36;;;;;;;1.95;0.60;;;28.50;47.40;;;;;;5094081;28;20027;-43
2021/05/16 09:11:02;;;;;;;1.80;0.50;;;28.30;46.10;;;;;;5093879;28;20028;-50
2021/05/16 09:13:36;;;;;;;1.80;0.50;;;27.90;46.40;;;;;;5094175;28;20136;-45
2021/05/16 09:16:07;;;;;;;0.50;0.40;;;26.80;46.90;;;;;;5094060;28;20082;-45
2021/05/16 09:18:44;;;;;;;0.28;0.25;;;25.70;48.00;;;;;;5093425;28;20024;-45
2021/05/16 09:21:32;;;;;;;0.60;0.40;;;26.10;48.30;;;;;;5093141;28;20032;-44
2021/05/16 09:24:03;;;;;;;0.52;0.47;;;27.00;46.40;;;;;;5093945;28;20028;-44
2021/05/16 09:26:49;;;;;;;0.40;0.40;;;28.10;46.00;;;;;;5093786;28;20024;-48
2021/05/16 09:29:32;;;;;;;;;;;28.30;44.90;;;;;;5088887;28;20039;-43
2021/05/16 09:32:00;;;;;;;0.30;0.20;;;27.80;43.80;;;;;;5072303;28;19956;-48
2021/05/16 09:34:26;;;;;;;1.63;0.40;;;27.30;46.00;;;;;;5073389;28;20067;-46
2021/05/16 09:36:54;;;;;;;0.38;0.30;;;26.60;46.30;;;;;;5073081;28;20059;-43
2021/05/16 09:39:25;;;;;;;0.40;0.32;;;25.70;46.60;;;;;;5073273;28;20085;-47
2021/05/16 09:42:13;;;;;;;1.52;0.43;;;25.00;47.80;;;;;;5073246;28;20020;-43
2021/05/16 09:44:50;;;;;;;1.08;0.50;;;24.10;48.50;;;;;;5073333;28;20040;-46
2021/05/16 09:47:21;;;;;;;0.30;0.30;;;23.40;49.60;;;;;;5072111;28;20471;-43
2021/05/16 09:49:52;;;;;;;1.13;0.40;;;23.10;50.20;;;;;;5073059;28;20033;-46
2021/05/16 09:52:31;;;;;;;0.35;0.30;;;22.90;50.50;;;;;;5088041;28;20432;-45
2021/05/16 09:55:09;;;;;;;1.00;0.60;;;22.70;50.90;;;;;;5093133;28;20469;-43
2021/05/16 09:57:42;;;;;;;0.40;0.40;;;22.40;51.80;;;;;;5093307;28;20381;-49
2021/05/16 10:00:13;;;;;;;0.70;0.60;;;22.30;51.90;;;;;;5093249;28;20573;-48
2021/05/16 10:02:40;;;;;;;0.45;0.40;;;22.20;52.50;;;;;;5092419;28;20379;-46
2021/05/16 10:05:08;;;;;;;0.40;0.40;;;22.20;52.40;;;;;;5092948;28;20471;-47
2021/05/16 10:07:34;;;;;;;2.85;0.73;;;22.30;52.40;;;;;;5092998;28;20499;-46
2021/05/16 10:10:00;;;;;;;0.68;0.40;;;22.20;52.20;;;;;;5092872;28;20044;-49
2021/05/16 10:12:27;;;;;;;0.73;0.45;;;22.20;52.40;;;;;;5091842;28;20028;-46
2021/05/16 10:15:16;;;;;;;0.73;0.60;;;22.20;52.30;;;;;;5092362;28;20435;-44
2021/05/16 10:17:49;;;;;;;0.50;0.50;;;22.30;52.40;;;;;;5064124;28;20483;-47
2021/05/16 10:20:19;;;;;;;1.27;0.70;;;22.30;52.40;;;;;;5063587;28;20028;-45
2021/05/16 10:22:56;;;;;;;0.90;0.50;;;22.00;52.50;;;;;;5064783;28;20483;-45
2021/05/16 10:25:42;;;;;;;1.20;0.40;;;21.50;53.90;;;;;;5070585;28;20073;-45
2021/05/16 10:28:08;;;;;;;1.00;0.70;;;21.10;55.60;;;;;;5063984;28;20103;-44
2021/05/16 10:30:33;;;;;;;1.30;0.45;;;21.00;55.00;;;;;;5066855;28;20021;-50
2021/05/16 10:32:59;;;;;;;1.33;0.82;;;20.90;55.30;;;;;;5069711;28;20043;-48
2021/05/16 10:35:27;;;;;;;1.27;0.50;;;20.90;55.50;;;;;;5057375;28;20129;-45
2021/05/16 10:37:54;;;;;;;0.80;0.65;;;20.80;55.70;;;;;;5067293;28;20021;-52
2021/05/16 10:40:20;;;;;;;0.32;0.32;;;20.70;56.00;;;;;;5057357;28;20029;-43
2021/05/16 10:42:46;;;;;;;9.10;5.80;;;20.80;56.00;;;;;;5070622;28;20025;-45
2021/05/16 10:45:14;;;;;;;2.65;2.08;;;20.80;55.50;;;;;;5070694;28;20044;-48
2021/05/16 10:47:43;;;;;;;1.58;1.35;;;20.90;55.40;;;;;;5069854;28;20027;-47
2021/05/16 10:50:10;;;;;;;1.52;1.20;;;20.90;55.30;;;;;;5070084;28;20037;-47
2021/05/16 10:52:35;;;;;;;3.45;1.33;;;20.90;55.20;;;;;;5073159;28;20054;-50
2021/05/16 10:55:03;;;;;;;3.63;1.00;;;20.70;55.30;;;;;;5059449;28;20123;-46
2021/05/16 10:57:36;;;;;;;2.90;0.57;;;20.60;55.50;;;;;;5070284;28;20482;-50
2021/05/16 11:00:20;;;;;;;3.50;1.00;;;20.60;56.40;;;;;;5070403;28;20056;-45
2021/05/16 11:03:04;;;;;;;1.33;1.02;;;20.70;56.80;;;;;;5069537;28;20029;-45
2021/05/16 11:05:49;;;;;;;10.68;7.88;;;21.10;56.20;;;;;;5070178;28;20105;-45
2021/05/16 11:08:20;;;;;;;33.22;27.63;;;21.30;55.30;;;;;;5070234;28;20367;-44
2021/05/16 11:10:52;;;;;;;43.00;36.50;;;21.50;54.30;;;;;;5069551;28;20407;-46
2021/05/16 11:13:28;;;;;;;35.80;27.95;;;21.70;53.70;;;;;;5069987;28;20020;-49
2021/05/16 11:15:57;;;;;;;22.15;17.70;;;21.80;53.70;;;;;;5069831;28;20074;-46
2021/05/16 11:18:23;;;;;;;27.17;14.55;;;22.00;53.60;;;;;;5069160;28;20585;-44
2021/05/16 11:20:56;;;;;;;18.02;13.25;;;22.00;53.50;;;;;;5069701;28;20043;-48
2021/05/16 11:23:32;;;;;;;11.90;6.95;;;21.90;53.50;;;;;;5071091;28;20032;-48
2021/05/16 11:26:10;;;;;;;16.65;14.18;;;21.50;53.40;;;;;;5056783;28;20024;-48
2021/05/16 11:28:52;;;;;;;6.28;4.20;;;21.50;53.80;;;;;;5069924;28;20071;-47
2021/05/16 11:31:21;;;;;;;4.25;1.63;;;21.80;53.20;;;;;;5067887;28;20029;-46
2021/05/16 11:33:54;;;;;;;2.58;1.67;;;21.80;53.20;;;;;;5070067;28;20017;-44
2021/05/16 11:36:24;;;;;;;4.30;1.30;;;21.70;53.40;;;;;;5069480;28;20115;-45
2021/05/16 11:38:53;;;;;;;2.80;1.00;;;21.60;52.70;;;;;;5065984;28;20020;-46
2021/05/16 11:41:31;;;;;;;3.33;1.10;;;21.60;52.90;;;;;;5069565;28;20035;-44
2021/05/16 11:44:00;;;;;;;3.60;1.23;;;21.50;52.80;;;;;;5070243;28;20059;-44
2021/05/16 11:46:34;;;;;;;3.20;0.90;;;21.60;52.60;;;;;;5071213;28;20059;-46
2021/05/16 11:49:00;;;;;;;4.15;1.55;;;21.70;52.60;;;;;;5073201;28;20067;-46
2021/05/16 11:51:28;;;;;;;2.03;0.98;;;21.60;52.70;;;;;;5081369;28;20455;-51
2021/05/16 11:53:55;;;;;;;2.75;0.80;;;21.80;52.90;;;;;;5073660;28;20231;-49
2021/05/16 11:56:30;;;;;;;3.58;0.82;;;22.20;52.40;;;;;;5073380;28;20024;-45
2021/05/16 11:58:58;;;;;;;2.80;0.75;;;22.60;51.70;;;;;;5072943;28;20021;-45
2021/05/16 12:01:25;;;;;;;2.25;0.85;;;22.70;51.20;;;;;;5072421;28;20038;-43
2021/05/16 12:04:04;;;;;;;3.65;0.95;;;22.30;51.00;;;;;;5072552;28;20035;-43
2021/05/16 12:06:31;;;;;;;3.70;0.80;;;22.20;51.30;;;;;;5072325;28;20028;-45
2021/05/16 12:09:05;;;;;;;3.13;1.02;;;22.20;51.50;;;;;;5072561;28;20021;-44
2021/05/16 12:11:33;;;;;;;5.00;1.50;;;22.20;51.10;;;;;;5072915;28;20842;-45
2021/05/16 12:14:09;;;;;;;4.72;1.20;;;22.10;50.90;;;;;;5072911;28;20252;-46
2021/05/16 12:16:36;;;;;;;2.38;1.02;;;22.10;51.30;;;;;;5071601;28;20017;-44
2021/05/16 12:19:03;;;;;;;1.45;0.85;;;22.30;50.70;;;;;;5072886;28;20024;-44
2021/05/16 12:21:30;;;;;;;3.50;1.15;;;22.10;48.20;;;;;;5073184;28;20582;-45
2021/05/16 12:24:09;;;;;;;6.10;1.48;;;21.90;49.40;;;;;;5072704;28;20498;-46
2021/05/16 12:26:37;;;;;;;2.40;0.93;;;21.70;50.40;;;;;;5072913;28;20031;-47
2021/05/16 12:29:03;;;;;;;3.08;0.80;;;21.50;50.70;;;;;;5072241;28;20130;-46
2021/05/16 12:31:30;;;;;;;1.75;0.68;;;21.50;51.00;;;;;;5071828;28;20040;-46
2021/05/16 12:34:03;;;;;;;1.58;0.70;;;21.50;51.10;;;;;;5072513;28;20459;-48
2021/05/16 12:36:28;;;;;;;2.55;0.98;;;21.60;51.60;;;;;;5072779;28;20618;-44
2021/05/16 12:38:54;;;;;;;3.15;0.75;;;21.70;51.40;;;;;;5072372;28;20104;-44
2021/05/16 12:41:25;;;;;;;2.80;0.60;;;21.80;51.40;;;;;;5072558;28;20062;-44
2021/05/16 12:44:24;;;;;;;1.20;0.70;;;21.90;51.50;;;;;;5071818;28;20035;-43
2021/05/16 12:46:50;;;;;;;1.42;0.65;;;22.00;51.20;;;;;;5064384;28;20031;-46
2021/05/16 12:49:26;;;;;;;2.67;0.57;;;22.20;51.30;;;;;;5072397;28;20024;-46
2021/05/16 12:52:00;;;;;;;;;;;22.20;51.30;;;;;;5073968;28;20048;-45